createdAt,value
2017-04-21T00:00:58.584Z,51.60
2017-04-21T00:01:58.658Z,51.80
2017-04-21T00:02:58.805Z,51.60
2017-04-21T00:03:58.902Z,51.90
2017-04-21T00:04:59.040Z,51.70
2017-04-21T00:05:59.239Z,51.90
2017-04-21T00:06:59.345Z,51.80
2017-04-21T00:07:59.514Z,52.00
2017-04-21T00:08:59.527Z,51.90
2017-04-21T00:09:59.568Z,52.20
2017-04-21T00:10:59.645Z,52.20
2017-04-21T00:11:59.719Z,51.70
2017-04-21T00:12:59.753Z,51.70
2017-04-21T00:13:59.812Z,51.80
2017-04-21T00:14:59.947Z,52.00
2017-04-21T00:16:00.030Z,51.90
2017-04-21T00:17:00.109Z,52.00
2017-04-21T00:18:00.173Z,52.00
2017-04-21T00:19:01.047Z,51.80
2017-04-21T00:20:01.134Z,52.00
2017-04-21T00:21:01.173Z,52.00
2017-04-21T00:22:02.026Z,51.90
2017-04-21T00:23:02.331Z,51.60
2017-04-21T00:24:02.409Z,51.90
2017-04-21T00:25:02.490Z,52.30
2017-04-21T00:26:02.559Z,52.40
2017-04-21T00:27:02.664Z,52.40
2017-04-21T00:28:02.739Z,52.30
2017-04-21T00:29:02.873Z,52.50
2017-04-21T00:30:02.976Z,52.50
2017-04-21T00:31:03.081Z,52.50
2017-04-21T00:32:03.119Z,52.20
2017-04-21T00:33:03.160Z,52.60
2017-04-21T00:34:03.206Z,52.50
2017-04-21T00:35:03.304Z,52.40
2017-04-21T00:36:03.357Z,52.50
2017-04-21T00:37:03.413Z,52.50
2017-04-21T00:38:03.441Z,52.70
2017-04-21T00:39:03.495Z,52.50
2017-04-21T00:40:03.724Z,52.70
2017-04-21T00:41:03.921Z,53.00
2017-04-21T00:42:04.049Z,53.10
2017-04-21T00:43:04.154Z,53.10
2017-04-21T00:44:04.212Z,52.90
2017-04-21T00:45:05.386Z,52.90
2017-04-21T00:46:05.481Z,52.80
2017-04-21T00:47:05.522Z,52.60
2017-04-21T00:48:05.637Z,52.50
2017-04-21T00:49:05.710Z,53.10
2017-04-21T00:50:05.754Z,53.10
2017-04-21T00:51:12.033Z,53.10
2017-04-21T00:52:12.087Z,53.20
2017-04-21T00:53:12.379Z,53.60
2017-04-21T00:54:13.266Z,53.90
2017-04-21T00:55:13.389Z,54.00
2017-04-21T00:56:13.434Z,53.80
2017-04-21T00:57:13.518Z,53.40
2017-04-21T00:58:13.742Z,53.40
2017-04-21T00:59:13.789Z,53.30
2017-04-21T01:00:13.867Z,53.30
2017-04-21T01:01:14.672Z,53.30
2017-04-21T01:02:14.713Z,53.30
2017-04-21T01:03:14.838Z,53.60
2017-04-21T01:04:14.998Z,53.80
2017-04-21T01:05:15.065Z,53.60
2017-04-21T01:06:15.143Z,53.90
2017-04-21T01:07:15.196Z,54.30
2017-04-21T01:08:15.356Z,54.40
2017-04-21T01:09:15.402Z,55.00
2017-04-21T01:10:15.478Z,54.40
2017-04-21T01:11:15.553Z,55.20
2017-04-21T01:12:15.597Z,54.70
2017-04-21T01:13:15.624Z,54.60
2017-04-21T01:14:15.745Z,54.60
2017-04-21T01:15:15.834Z,54.50
2017-04-21T01:16:15.871Z,54.40
2017-04-21T01:17:15.957Z,54.10
2017-04-21T01:18:16.035Z,54.90
2017-04-21T01:19:16.062Z,54.20
2017-04-21T01:20:16.101Z,54.60
2017-04-21T01:21:16.182Z,54.60
2017-04-21T01:22:16.244Z,54.70
2017-04-21T01:23:17.018Z,54.80
2017-04-21T01:24:17.073Z,54.60
2017-04-21T01:25:17.126Z,54.70
2017-04-21T01:26:17.216Z,54.80
2017-04-21T01:27:17.244Z,54.80
2017-04-21T01:28:17.354Z,54.80
2017-04-21T01:29:17.383Z,54.90
2017-04-21T01:30:17.494Z,55.00
2017-04-21T01:31:17.578Z,55.50
2017-04-21T01:32:17.628Z,55.80
2017-04-21T01:33:17.721Z,56.00
2017-04-21T01:34:17.788Z,55.90
2017-04-21T01:35:17.857Z,55.60
2017-04-21T01:36:18.001Z,55.80
2017-04-21T01:37:18.092Z,55.80
2017-04-21T01:38:18.235Z,56.00
2017-04-21T01:39:18.447Z,56.60
2017-04-21T01:40:18.566Z,56.00
2017-04-21T01:41:18.601Z,56.20
2017-04-21T01:42:18.677Z,56.20
2017-04-21T01:43:18.718Z,56.50
2017-04-21T01:44:18.784Z,56.20
2017-04-21T01:45:18.924Z,56.40
2017-04-21T01:46:19.074Z,56.50
2017-04-21T01:47:19.239Z,56.80
2017-04-21T01:48:19.281Z,56.60
2017-04-21T01:49:20.195Z,56.40
2017-04-21T01:50:20.307Z,56.30
2017-04-21T01:51:20.402Z,56.50
2017-04-21T01:52:20.565Z,56.80
2017-04-21T01:53:20.798Z,57.20
2017-04-21T01:54:20.865Z,57.10
2017-04-21T01:55:21.291Z,57.20
2017-04-21T01:56:21.288Z,57.20
2017-04-21T01:57:21.378Z,57.20
2017-04-21T01:58:21.527Z,57.50
2017-04-21T01:59:21.563Z,57.60
2017-04-21T02:00:22.143Z,57.50
2017-04-21T02:01:22.221Z,57.60
2017-04-21T02:02:22.428Z,57.70
2017-04-21T02:03:22.477Z,57.50
2017-04-21T02:04:22.525Z,57.50
2017-04-21T02:05:22.874Z,57.60
2017-04-21T02:06:22.914Z,57.60
2017-04-21T02:07:22.966Z,57.60
2017-04-21T02:08:22.997Z,57.50
2017-04-21T02:09:23.065Z,57.60
2017-04-21T02:10:23.505Z,57.60
2017-04-21T02:11:23.615Z,58.00
2017-04-21T02:12:23.684Z,57.80
2017-04-21T02:13:23.753Z,57.70
2017-04-21T02:14:23.852Z,57.70
2017-04-21T02:15:24.023Z,57.70
2017-04-21T02:16:24.077Z,57.80
2017-04-21T02:17:24.153Z,57.80
2017-04-21T02:18:24.226Z,57.60
2017-04-21T02:19:25.057Z,57.30
2017-04-21T02:20:25.550Z,57.40
2017-04-21T02:21:25.680Z,57.70
2017-04-21T02:22:25.774Z,57.70
2017-04-21T02:23:25.821Z,57.40
2017-04-21T02:24:25.859Z,57.80
2017-04-21T02:25:26.299Z,58.00
2017-04-21T02:26:26.328Z,58.20
2017-04-21T02:27:27.214Z,58.20
2017-04-21T02:28:27.285Z,58.20
2017-04-21T02:29:27.333Z,58.80
2017-04-21T02:30:27.497Z,58.70
2017-04-21T02:31:27.548Z,58.50
2017-04-21T02:32:27.644Z,59.00
2017-04-21T02:33:27.702Z,58.70
2017-04-21T02:34:27.801Z,58.50
2017-04-21T02:35:28.264Z,58.70
2017-04-21T02:36:28.367Z,59.00
2017-04-21T02:37:28.412Z,59.20
2017-04-21T02:38:28.514Z,59.20
2017-04-21T02:39:28.652Z,59.00
2017-04-21T02:40:28.960Z,59.40
2017-04-21T02:41:29.017Z,59.30
2017-04-21T02:42:29.083Z,59.30
2017-04-21T02:43:29.218Z,59.30
2017-04-21T02:44:29.314Z,59.10
2017-04-21T02:45:29.758Z,59.20
2017-04-21T02:46:29.822Z,59.70
2017-04-21T02:47:29.861Z,59.60
2017-04-21T02:48:29.945Z,60.10
2017-04-21T02:49:30.013Z,59.90
2017-04-21T02:50:30.811Z,60.50
2017-04-21T02:51:30.992Z,61.10
2017-04-21T02:52:31.115Z,61.70
2017-04-21T02:53:31.170Z,62.20
2017-04-21T02:54:31.264Z,62.40
2017-04-21T02:55:31.484Z,63.20
2017-04-21T02:56:31.569Z,62.70
2017-04-21T02:57:31.717Z,63.10
2017-04-21T02:58:31.784Z,63.20
2017-04-21T02:59:31.877Z,63.20
2017-04-21T03:00:32.212Z,63.40
2017-04-21T03:01:32.354Z,63.30
2017-04-21T03:02:32.454Z,63.50
2017-04-21T03:03:32.561Z,63.90
2017-04-21T03:04:33.425Z,64.20
2017-04-21T03:05:33.813Z,64.40
2017-04-21T03:06:33.854Z,64.60
2017-04-21T03:07:33.923Z,64.80
2017-04-21T03:08:33.952Z,64.90
2017-04-21T03:09:34.029Z,65.60
2017-04-21T03:10:34.392Z,65.30
2017-04-21T03:11:34.503Z,65.10
2017-04-21T03:12:34.542Z,65.10
2017-04-21T03:13:34.598Z,65.00
2017-04-21T03:14:35.030Z,64.90
2017-04-21T03:15:35.366Z,65.00
2017-04-21T03:16:35.617Z,64.80
2017-04-21T03:17:36.395Z,64.90
2017-04-21T03:18:36.454Z,65.00
2017-04-21T03:19:36.570Z,64.80
2017-04-21T03:20:36.914Z,64.80
2017-04-21T03:21:36.990Z,64.90
2017-04-21T03:22:37.746Z,65.10
2017-04-21T03:23:37.867Z,65.50
2017-04-21T03:24:37.944Z,66.00
2017-04-21T03:25:38.254Z,65.80
2017-04-21T03:26:38.355Z,65.90
2017-04-21T03:27:38.483Z,65.70
2017-04-21T03:28:38.543Z,65.60
2017-04-21T03:29:38.573Z,65.60
2017-04-21T03:30:38.921Z,66.00
2017-04-21T03:31:39.009Z,65.60
2017-04-21T03:32:39.045Z,66.10
2017-04-21T03:33:39.091Z,66.30
2017-04-21T03:34:39.215Z,66.60
2017-04-21T03:35:39.534Z,67.00
2017-04-21T03:36:40.298Z,67.20
2017-04-21T03:37:40.305Z,67.90
2017-04-21T03:38:40.343Z,67.90
2017-04-21T03:39:40.349Z,67.90
2017-04-21T03:40:40.392Z,67.90
2017-04-21T03:41:40.477Z,68.20
2017-04-21T03:42:40.547Z,68.10
2017-04-21T03:43:40.601Z,68.20
2017-04-21T03:44:41.378Z,68.00
2017-04-21T03:45:41.419Z,67.90
2017-04-21T03:46:41.518Z,68.30
2017-04-21T03:47:41.723Z,67.70
2017-04-21T03:48:41.810Z,67.20
2017-04-21T03:49:41.833Z,67.30
2017-04-21T03:50:41.898Z,67.70
2017-04-21T03:51:42.017Z,68.10
2017-04-21T03:52:42.106Z,67.40
2017-04-21T03:53:42.334Z,67.40
2017-04-21T03:54:42.373Z,67.30
2017-04-21T03:56:06.614Z,67.70
2017-04-21T03:57:07.723Z,67.90
2017-04-21T03:58:08.520Z,68.10
2017-04-21T03:59:08.587Z,68.60
2017-04-21T04:00:08.612Z,68.90
2017-04-21T04:01:08.670Z,69.40
2017-04-21T04:02:09.459Z,68.70
2017-04-21T04:03:09.571Z,68.60
2017-04-21T04:04:09.590Z,68.80
2017-04-21T04:05:09.677Z,68.40
2017-04-21T04:06:10.227Z,68.30
2017-04-21T04:07:10.465Z,68.50
2017-04-21T04:08:10.498Z,68.50
2017-04-21T04:09:10.520Z,68.50
2017-04-21T04:10:10.590Z,68.80
2017-04-21T04:11:10.674Z,68.80
2017-04-21T04:12:10.704Z,68.90
2017-04-21T04:13:10.813Z,69.20
2017-04-21T04:14:10.858Z,68.90
2017-04-21T04:15:10.881Z,68.90
2017-04-21T04:16:11.166Z,68.90
2017-04-21T04:17:11.217Z,69.60
2017-04-21T04:18:11.259Z,69.40
2017-04-21T04:19:11.464Z,68.80
2017-04-21T04:20:11.591Z,69.00
2017-04-21T04:21:11.741Z,69.00
2017-04-21T04:22:11.981Z,69.40
2017-04-21T04:23:12.820Z,69.50
2017-04-21T04:24:12.891Z,69.40
2017-04-21T04:25:12.962Z,69.50
2017-04-21T04:26:13.007Z,69.60
2017-04-21T04:27:13.733Z,69.50
2017-04-21T04:28:13.889Z,69.40
2017-04-21T04:29:13.914Z,69.80
2017-04-21T04:30:14.062Z,69.60
2017-04-21T04:31:14.210Z,69.40
2017-04-21T04:32:14.344Z,69.50
2017-04-21T04:33:14.414Z,69.40
2017-04-21T04:34:14.445Z,69.30
2017-04-21T04:35:14.463Z,69.40
2017-04-21T04:36:14.521Z,69.40
2017-04-21T04:37:15.331Z,69.80
2017-04-21T04:38:15.353Z,69.70
2017-04-21T04:39:16.122Z,70.20
2017-04-21T04:40:16.154Z,69.90
2017-04-21T04:41:16.187Z,69.90
2017-04-21T04:42:16.207Z,69.80
2017-04-21T04:43:16.210Z,69.80
2017-04-21T04:44:16.403Z,69.90
2017-04-21T04:45:16.513Z,69.80
2017-04-21T04:46:16.621Z,69.80
2017-04-21T04:47:16.687Z,70.00
2017-04-21T04:48:16.735Z,70.00
2017-04-21T04:49:17.136Z,69.90
2017-04-21T04:50:17.155Z,69.40
2017-04-21T04:51:17.178Z,69.80
2017-04-21T04:52:17.269Z,69.80
2017-04-21T04:53:17.266Z,70.00
2017-04-21T04:54:17.316Z,70.00
2017-04-21T04:55:17.341Z,70.00
2017-04-21T04:56:17.827Z,70.00
2017-04-21T04:57:18.802Z,69.90
2017-04-21T04:58:18.846Z,70.00
2017-04-21T04:59:18.924Z,70.30
2017-04-21T05:00:20.036Z,70.40
2017-04-21T05:01:20.414Z,70.60
2017-04-21T05:02:21.149Z,70.50
2017-04-21T05:03:21.979Z,70.50
2017-04-21T05:04:22.864Z,70.40
2017-04-21T05:05:22.980Z,70.30
2017-04-21T05:06:30.086Z,70.20
2017-04-21T05:07:30.187Z,70.20
2017-04-21T05:08:30.238Z,70.20
2017-04-21T05:09:30.272Z,70.50
2017-04-21T05:10:30.345Z,70.70
2017-04-21T05:11:30.729Z,70.80
2017-04-21T05:12:31.600Z,70.60
2017-04-21T05:13:31.662Z,70.90
2017-04-21T05:14:32.521Z,71.10
2017-04-21T05:15:32.585Z,71.30
2017-04-21T05:16:33.731Z,71.30
2017-04-21T05:17:34.498Z,70.80
2017-04-21T05:18:34.581Z,70.80
2017-04-21T05:19:34.668Z,71.30
2017-04-21T05:20:36.914Z,72.10
2017-04-21T05:21:37.339Z,71.50
2017-04-21T05:22:37.424Z,71.60
2017-04-21T05:23:37.500Z,71.30
2017-04-21T05:24:37.632Z,71.10
2017-04-21T05:25:37.622Z,70.80
2017-04-21T05:26:37.991Z,70.90
2017-04-21T05:27:38.812Z,70.70
2017-04-21T05:28:39.582Z,71.10
2017-04-21T05:29:39.641Z,71.20
2017-04-21T05:30:41.857Z,71.20
2017-04-21T05:31:42.231Z,71.00
2017-04-21T05:32:42.450Z,71.10
2017-04-21T05:33:42.515Z,71.40
2017-04-21T05:34:42.549Z,71.30
2017-04-21T05:35:43.338Z,71.00
2017-04-21T05:36:43.791Z,71.30
2017-04-21T05:37:43.887Z,71.30
2017-04-21T05:38:43.903Z,71.10
2017-04-21T05:39:44.756Z,71.00
2017-04-21T05:40:44.802Z,70.90
2017-04-21T05:41:45.147Z,70.70
2017-04-21T05:42:45.259Z,70.80
2017-04-21T05:43:46.005Z,70.50
2017-04-21T05:44:46.035Z,70.20
2017-04-21T05:45:46.050Z,70.20
2017-04-21T05:46:46.393Z,70.20
2017-04-21T05:47:46.938Z,70.30
2017-04-21T05:48:46.999Z,71.50
2017-04-21T05:49:47.079Z,70.70
2017-04-21T05:50:47.110Z,70.80
2017-04-21T05:51:47.681Z,71.10
2017-04-21T05:52:47.689Z,71.20
2017-04-21T05:53:47.727Z,71.30
2017-04-21T05:54:47.769Z,71.60
2017-04-21T05:55:47.825Z,71.30
2017-04-21T05:56:48.234Z,71.40
2017-04-21T05:57:48.317Z,71.70
2017-04-21T05:58:49.119Z,71.80
2017-04-21T05:59:49.142Z,72.20
2017-04-21T06:00:49.218Z,72.10
2017-04-21T06:01:49.627Z,72.30
2017-04-21T06:02:49.685Z,72.00
2017-04-21T06:03:50.422Z,72.20
2017-04-21T06:04:50.410Z,72.40
2017-04-21T06:05:51.616Z,72.50
2017-04-21T06:06:52.034Z,72.70
2017-04-21T06:07:52.083Z,72.30
2017-04-21T06:08:52.115Z,72.50
2017-04-21T06:09:52.151Z,72.40
2017-04-21T06:10:52.246Z,72.40
2017-04-21T06:11:52.845Z,72.40
2017-04-21T06:12:52.981Z,73.10
2017-04-21T06:13:53.057Z,73.10
2017-04-21T06:14:53.079Z,72.90
2017-04-21T06:15:53.151Z,73.00
2017-04-21T06:16:54.244Z,73.00
2017-04-21T06:17:54.340Z,73.10
2017-04-21T06:18:54.499Z,72.90
2017-04-21T06:19:55.334Z,72.80
2017-04-21T06:20:56.115Z,72.60
2017-04-21T06:21:56.572Z,72.60
2017-04-21T06:22:56.710Z,72.90
2017-04-21T06:23:56.853Z,73.30
2017-04-21T06:24:56.871Z,73.10
2017-04-21T06:25:56.976Z,73.20
2017-04-21T06:26:58.317Z,72.50
2017-04-21T06:27:58.486Z,73.20
2017-04-21T06:28:58.819Z,73.00
2017-04-21T06:29:58.901Z,72.60
2017-04-21T06:30:58.918Z,72.40
2017-04-21T06:31:59.394Z,72.70
2017-04-21T06:33:00.197Z,72.80
2017-04-21T06:34:00.369Z,73.10
2017-04-21T06:35:00.482Z,73.10
2017-04-21T06:36:00.849Z,72.90
2017-04-21T06:37:01.995Z,72.70
2017-04-21T06:38:02.786Z,72.50
2017-04-21T06:39:03.312Z,72.30
2017-04-21T06:40:03.399Z,72.50
2017-04-21T06:41:03.524Z,72.50
2017-04-21T06:42:03.975Z,72.60
2017-04-21T06:43:04.035Z,72.60
2017-04-21T06:44:04.063Z,72.70
2017-04-21T06:45:04.076Z,72.80
2017-04-21T06:46:04.117Z,72.60
2017-04-21T06:47:04.570Z,73.20
2017-04-21T06:48:19.267Z,72.50
2017-04-21T06:49:20.463Z,72.70
2017-04-21T06:50:21.837Z,72.70
2017-04-21T06:51:22.655Z,72.80
2017-04-21T06:52:25.734Z,72.90
2017-04-21T06:53:26.510Z,73.10
2017-04-21T06:54:28.601Z,73.10
2017-04-21T06:55:30.263Z,73.20
2017-04-21T06:56:31.088Z,73.20
2017-04-21T06:57:32.054Z,73.00
2017-04-21T06:58:34.458Z,72.90
2017-04-21T06:59:35.646Z,73.00
2017-04-21T07:00:35.691Z,73.40
2017-04-21T07:01:35.717Z,73.60
2017-04-21T07:02:58.726Z,73.30
2017-04-21T07:03:58.973Z,73.30
2017-04-21T07:04:59.061Z,73.20
2017-04-21T07:05:59.161Z,73.20
2017-04-21T07:07:00.118Z,72.90
2017-04-21T07:08:01.536Z,73.90
2017-04-21T07:09:01.596Z,73.00
2017-04-21T07:10:01.896Z,72.90
2017-04-21T07:11:02.654Z,72.60
2017-04-21T07:12:02.855Z,72.80
2017-04-21T07:13:02.954Z,73.20
2017-04-21T07:14:03.108Z,72.90
2017-04-21T07:15:03.232Z,72.70
2017-04-21T07:16:03.347Z,72.50
2017-04-21T07:17:03.436Z,72.30
2017-04-21T07:18:04.347Z,72.30
2017-04-21T07:19:13.462Z,72.20
2017-04-21T07:20:13.759Z,72.20
2017-04-21T07:21:13.906Z,72.20
2017-04-21T07:22:14.779Z,72.90
2017-04-21T07:23:14.860Z,71.80
2017-04-21T07:24:15.006Z,71.80
2017-04-21T07:25:24.961Z,71.90
2017-04-21T07:26:25.093Z,72.70
2017-04-21T07:27:25.470Z,72.50
2017-04-21T07:28:26.890Z,72.40
2017-04-21T07:29:47.131Z,72.30
2017-04-21T07:31:04.641Z,72.10
2017-04-21T07:32:06.453Z,72.20
2017-04-21T07:33:38.955Z,72.70
2017-04-21T07:34:38.994Z,71.80
2017-04-21T07:36:39.276Z,71.90
2017-04-21T07:37:39.363Z,72.10
2017-04-21T07:39:50.747Z,72.20
2017-04-21T07:40:52.940Z,72.00
2017-04-21T07:41:52.966Z,72.20
2017-04-21T07:42:53.611Z,72.00
2017-04-21T07:43:54.030Z,72.00
2017-04-21T07:44:54.065Z,72.20
2017-04-21T07:45:55.083Z,72.10
2017-04-21T07:46:55.225Z,72.10
2017-04-21T07:47:55.349Z,72.10
2017-04-21T07:48:55.358Z,72.00
2017-04-21T07:49:55.393Z,71.90
2017-04-21T07:50:55.485Z,72.10
2017-04-21T07:51:56.285Z,72.60
2017-04-21T07:52:56.278Z,72.40
2017-04-21T07:53:56.342Z,72.40
2017-04-21T07:54:56.387Z,72.80
2017-04-21T07:55:56.417Z,73.00
2017-04-21T07:57:16.115Z,73.10
2017-04-21T07:58:18.034Z,72.90
2017-04-21T07:59:32.174Z,72.60
2017-04-21T08:00:32.324Z,72.40
2017-04-21T08:01:33.044Z,72.30
2017-04-21T08:02:53.410Z,72.00
2017-04-21T08:03:57.284Z,73.20
2017-04-21T08:04:58.009Z,71.90
2017-04-21T08:05:58.042Z,71.80
2017-04-21T08:07:00.087Z,72.10
2017-04-21T08:08:01.916Z,71.80
2017-04-21T08:10:14.399Z,71.90
2017-04-21T08:11:14.482Z,70.90
2017-04-21T08:12:19.987Z,70.60
2017-04-21T08:13:20.090Z,70.20
2017-04-21T08:14:20.542Z,70.10
2017-04-21T08:15:20.664Z,69.10
2017-04-21T08:16:20.866Z,68.60
2017-04-21T08:17:20.874Z,69.50
2017-04-21T08:18:20.926Z,68.90
2017-04-21T08:19:21.379Z,68.20
2017-04-21T08:20:22.173Z,67.50
2017-04-21T08:21:22.228Z,67.30
2017-04-21T08:22:22.285Z,68.10
2017-04-21T08:23:22.417Z,67.20
2017-04-21T08:24:23.551Z,66.30
2017-04-21T08:25:24.329Z,65.80
2017-04-21T08:26:24.386Z,66.30
2017-04-21T08:27:25.187Z,66.10
2017-04-21T08:28:25.227Z,66.00
2017-04-21T08:29:26.031Z,65.60
2017-04-21T08:30:26.142Z,65.40
2017-04-21T08:31:26.386Z,64.00
2017-04-21T08:32:26.446Z,63.30
2017-04-21T08:33:26.475Z,63.60
2017-04-21T08:34:26.888Z,63.80
2017-04-21T08:35:26.986Z,63.10
2017-04-21T08:36:27.044Z,62.70
2017-04-21T08:37:27.166Z,62.30
2017-04-21T08:38:27.246Z,61.70
2017-04-21T08:39:27.773Z,61.00
2017-04-21T08:40:27.892Z,60.20
2017-04-21T08:41:28.009Z,59.50
2017-04-21T08:42:28.078Z,59.40
2017-04-21T08:43:28.920Z,59.40
2017-04-21T08:44:29.521Z,59.10
2017-04-21T08:45:30.316Z,59.60
2017-04-21T08:46:30.389Z,59.90
2017-04-21T08:47:30.413Z,59.70
2017-04-21T08:48:30.695Z,59.60
2017-04-21T08:49:30.738Z,59.70
2017-04-21T08:50:30.843Z,59.70
2017-04-21T08:51:30.881Z,59.80
2017-04-21T08:52:30.994Z,59.90
2017-04-21T08:53:31.019Z,60.20
2017-04-21T08:54:32.154Z,60.30
2017-04-21T08:55:32.481Z,60.30
2017-04-21T08:56:32.504Z,60.40
2017-04-21T08:57:32.823Z,60.30
2017-04-21T08:58:32.838Z,59.40
2017-04-21T08:59:34.009Z,59.30
2017-04-21T09:00:34.046Z,59.20
2017-04-21T09:01:34.138Z,59.00
2017-04-21T09:02:34.211Z,58.50
2017-04-21T09:03:34.381Z,58.90
2017-04-21T09:04:34.943Z,59.00
2017-04-21T09:05:34.963Z,58.70
2017-04-21T09:06:35.151Z,59.20
2017-04-21T09:07:35.159Z,58.50
2017-04-21T09:08:35.178Z,58.50
2017-04-21T09:09:35.530Z,58.60
2017-04-21T09:10:36.442Z,58.40
2017-04-21T09:11:37.307Z,59.00
2017-04-21T09:12:37.370Z,58.90
2017-04-21T09:13:37.437Z,59.00
2017-04-21T09:14:37.799Z,58.60
2017-04-21T09:15:37.839Z,58.70
2017-04-21T09:16:37.972Z,58.50
2017-04-21T09:17:38.042Z,58.50
2017-04-21T09:18:38.086Z,58.00
2017-04-21T09:19:38.488Z,57.70
2017-04-21T09:20:38.466Z,57.20
2017-04-21T09:21:38.617Z,57.20
2017-04-21T09:22:38.736Z,57.50
2017-04-21T09:23:38.948Z,56.10
2017-04-21T09:24:39.409Z,55.90
2017-04-21T09:25:40.164Z,56.10
2017-04-21T09:26:40.335Z,55.50
2017-04-21T09:27:41.130Z,54.70
2017-04-21T09:28:41.292Z,55.00
2017-04-21T09:29:41.707Z,55.40
2017-04-21T09:30:41.730Z,55.10
2017-04-21T09:32:41.833Z,55.20
2017-04-21T09:33:29.606Z,55.40
2017-04-21T09:33:41.940Z,55.20
2017-04-21T09:34:42.321Z,55.80
2017-04-21T09:35:42.498Z,55.50
2017-04-21T09:36:42.546Z,55.90
2017-04-21T09:37:43.517Z,56.00
2017-04-21T09:38:43.546Z,56.40
2017-04-21T09:39:43.899Z,56.30
2017-04-21T09:40:57.818Z,56.50
2017-04-21T09:41:58.670Z,56.50
2017-04-21T09:42:59.487Z,56.90
2017-04-21T09:44:05.461Z,57.00
2017-04-21T09:46:21.128Z,57.00
2017-04-21T09:47:21.224Z,57.00
2017-04-21T09:48:22.082Z,57.60
2017-04-21T09:49:22.187Z,57.80
2017-04-21T09:50:53.598Z,58.00
2017-04-21T09:51:22.453Z,58.20
2017-04-21T09:53:46.847Z,58.70
2017-04-21T09:54:41.606Z,58.20
2017-04-21T09:56:03.373Z,58.40
2017-04-21T09:58:43.157Z,58.20
2017-04-21T10:00:06.750Z,58.20
2017-04-21T10:01:22.545Z,58.00
2017-04-21T10:02:01.043Z,57.90
2017-04-21T10:03:07.834Z,57.90
2017-04-21T10:04:07.704Z,58.00
2017-04-21T10:04:46.147Z,58.50
2017-04-21T10:06:12.918Z,58.40
2017-04-21T10:07:40.426Z,58.90
2017-04-21T10:07:42.293Z,58.70
2017-04-21T10:07:53.002Z,58.40
2017-04-21T10:07:57.253Z,58.80
2017-04-21T10:08:28.188Z,59.40
2017-04-21T10:08:33.026Z,59.00
2017-04-21T10:09:29.055Z,59.40
2017-04-21T10:10:29.109Z,59.40
2017-04-21T10:11:29.264Z,59.50
2017-04-21T10:12:30.038Z,59.90
2017-04-21T10:13:30.203Z,59.20
2017-04-21T10:14:30.285Z,59.00
2017-04-21T10:15:30.409Z,59.00
2017-04-21T10:16:31.139Z,59.40
2017-04-21T10:17:31.958Z,60.40
2017-04-21T10:18:33.027Z,59.60
2017-04-21T10:19:33.076Z,59.70
2017-04-21T10:20:33.175Z,59.50
2017-04-21T10:21:33.227Z,59.50
2017-04-21T10:22:34.138Z,59.70
2017-04-21T10:23:34.954Z,59.90
2017-04-21T10:24:34.974Z,59.80
2017-04-21T10:25:35.106Z,60.30
2017-04-21T10:26:35.113Z,59.70
2017-04-21T10:27:35.905Z,59.50
2017-04-21T10:28:35.958Z,59.50
2017-04-21T10:29:36.002Z,59.20
2017-04-21T10:30:36.097Z,59.30
2017-04-21T10:31:36.124Z,59.20
2017-04-21T10:32:36.166Z,58.70
2017-04-21T10:33:36.274Z,58.40
2017-04-21T10:34:36.298Z,58.60
2017-04-21T10:35:36.295Z,58.50
2017-04-21T10:36:36.244Z,58.20
2017-04-21T10:37:36.247Z,57.60
2017-04-21T10:38:36.294Z,57.40
2017-04-21T10:39:37.046Z,56.80
2017-04-21T10:40:37.324Z,56.60
2017-04-21T10:41:38.118Z,57.20
2017-04-21T10:42:38.935Z,56.90
2017-04-21T10:43:38.977Z,57.00
2017-04-21T10:44:39.115Z,56.10
2017-04-21T10:45:39.164Z,55.80
2017-04-21T10:46:39.209Z,56.20
2017-04-21T10:47:40.003Z,56.10
2017-04-21T10:48:39.953Z,56.30
2017-04-21T10:49:40.805Z,56.00
2017-04-21T10:50:40.959Z,56.30
2017-04-21T10:51:40.953Z,55.60
2017-04-21T10:52:41.047Z,55.60
2017-04-21T10:53:41.142Z,55.30
2017-04-21T10:54:41.240Z,55.00
2017-04-21T10:55:41.259Z,55.00
2017-04-21T10:56:41.357Z,54.90
2017-04-21T10:57:41.409Z,54.80
2017-04-21T10:58:41.475Z,55.30
2017-04-21T10:59:41.490Z,55.10
2017-04-21T11:00:41.478Z,55.80
2017-04-21T11:01:41.535Z,55.40
2017-04-21T11:02:41.580Z,55.60
2017-04-21T11:03:41.634Z,55.70
2017-04-21T11:04:41.711Z,56.10
2017-04-21T11:05:41.932Z,56.10
2017-04-21T11:06:41.998Z,56.30
2017-04-21T11:07:42.829Z,55.40
2017-04-21T11:08:43.594Z,55.70
2017-04-21T11:09:43.692Z,55.80
2017-04-21T11:10:43.796Z,55.70
2017-04-21T11:11:43.852Z,55.60
2017-04-21T11:12:43.908Z,55.70
2017-04-21T11:13:43.951Z,56.00
2017-04-21T11:14:44.146Z,56.60
2017-04-21T11:15:44.289Z,56.00
2017-04-21T11:16:44.321Z,56.30
2017-04-21T11:17:45.070Z,56.70
2017-04-21T11:18:45.086Z,56.20
2017-04-21T11:19:45.099Z,56.10
2017-04-21T11:20:45.141Z,55.80
2017-04-21T11:21:45.181Z,56.20
2017-04-21T11:22:45.250Z,56.60
2017-04-21T11:23:45.312Z,56.50
2017-04-21T11:24:45.377Z,56.30
2017-04-21T11:25:45.409Z,56.60
2017-04-21T11:26:46.168Z,56.80
2017-04-21T11:27:46.223Z,57.10
2017-04-21T11:28:46.228Z,56.50
2017-04-21T11:29:47.006Z,56.90
2017-04-21T11:30:47.048Z,55.90
2017-04-21T11:31:47.107Z,56.10
2017-04-21T11:32:47.170Z,56.20
2017-04-21T11:33:47.281Z,55.90
2017-04-21T11:34:47.327Z,55.90
2017-04-21T11:35:47.399Z,56.00
2017-04-21T11:36:47.638Z,55.90
2017-04-21T11:37:47.653Z,55.00
2017-04-21T11:38:47.681Z,55.10
2017-04-21T11:39:47.701Z,55.30
2017-04-21T11:40:48.566Z,55.40
2017-04-21T11:41:49.326Z,55.40
2017-04-21T11:42:49.401Z,56.00
2017-04-21T11:43:50.214Z,55.50
2017-04-21T11:44:50.234Z,55.90
2017-04-21T11:45:51.075Z,55.60
2017-04-21T11:46:51.094Z,55.40
2017-04-21T11:47:51.123Z,55.50
2017-04-21T11:48:51.906Z,55.50
2017-04-21T11:49:52.742Z,55.80
2017-04-21T11:50:52.866Z,55.80
2017-04-21T11:51:58.397Z,56.00
2017-04-21T11:53:02.228Z,56.40
2017-04-21T11:54:04.266Z,56.20
2017-04-21T11:55:07.290Z,56.40
2017-04-21T11:56:08.211Z,56.40
2017-04-21T11:58:19.305Z,56.80
2017-04-21T11:59:19.392Z,56.90
2017-04-21T12:00:24.755Z,56.80
2017-04-21T12:01:26.198Z,56.70
2017-04-21T12:02:26.931Z,57.10
2017-04-21T12:03:26.975Z,57.50
2017-04-21T12:04:26.938Z,57.60
2017-04-21T12:05:26.932Z,57.80
2017-04-21T12:06:26.998Z,57.80
2017-04-21T12:07:26.960Z,57.40
2017-04-21T12:14:36.228Z,57.80
2017-04-21T12:15:39.892Z,61.20
2017-04-21T12:16:43.594Z,62.10
2017-04-21T12:17:44.764Z,63.40
2017-04-21T12:18:45.566Z,62.40
2017-04-21T12:19:47.810Z,62.90
2017-04-21T12:20:51.482Z,62.80
2017-04-21T12:21:52.253Z,62.40
2017-04-21T12:22:53.030Z,63.10
2017-04-21T12:23:54.677Z,63.70
2017-04-21T12:24:55.480Z,64.30
2017-04-21T12:25:55.490Z,64.50
2017-04-21T12:26:55.498Z,64.00
2017-04-21T12:27:55.538Z,62.70
2017-04-21T12:28:56.385Z,62.30
2017-04-21T12:29:56.409Z,62.10
2017-04-21T12:30:56.393Z,61.80
2017-04-21T12:31:56.491Z,61.80
2017-04-21T12:32:56.619Z,62.10
2017-04-21T12:33:56.686Z,62.40
2017-04-21T12:34:57.423Z,63.30
2017-04-21T12:35:58.386Z,64.30
2017-04-21T12:36:58.525Z,64.70
2017-04-21T12:37:58.700Z,65.30
2017-04-21T12:38:58.731Z,65.50
2017-04-21T12:39:58.934Z,66.80
2017-04-21T12:40:59.098Z,66.80
2017-04-21T12:41:59.885Z,66.60
2017-04-21T12:43:00.058Z,66.80
2017-04-21T12:44:00.119Z,66.80
2017-04-21T12:45:00.134Z,67.00
2017-04-21T12:46:00.919Z,66.10
2017-04-21T12:47:00.984Z,66.70
2017-04-21T12:48:01.070Z,67.10
2017-04-21T12:49:01.980Z,66.60
2017-04-21T12:50:02.037Z,67.30
2017-04-21T12:51:02.066Z,67.60
2017-04-21T12:52:02.294Z,68.20
2017-04-21T12:53:02.410Z,69.00
2017-04-21T12:54:02.397Z,69.10
2017-04-21T12:55:02.413Z,68.80
2017-04-21T12:56:03.206Z,69.30
2017-04-21T12:57:03.247Z,70.50
2017-04-21T12:58:04.182Z,70.60
2017-04-21T12:59:04.290Z,71.10
2017-04-21T13:00:04.376Z,70.50
2017-04-21T13:01:04.593Z,70.40
2017-04-21T13:02:04.789Z,71.40
2017-04-21T13:03:04.839Z,70.50
2017-04-21T13:04:05.187Z,69.40
2017-04-21T13:05:06.025Z,69.60
2017-04-21T13:06:06.184Z,69.70
2017-04-21T13:07:06.289Z,69.40
2017-04-21T13:08:06.411Z,69.30
2017-04-21T13:09:06.763Z,69.50
2017-04-21T13:10:06.875Z,69.20
2017-04-21T13:11:06.938Z,69.60
2017-04-21T13:12:07.108Z,68.90
2017-04-21T13:13:07.324Z,69.50